createdAt,value
2022-10-14T00:01:12.465Z,98361.59
2022-10-14T00:04:01.232Z,98358.09
2022-10-14T00:06:31.671Z,98360.34
2022-10-14T00:09:01.890Z,98364.34
2022-10-14T00:11:32.900Z,98347.44
2022-10-14T00:14:06.551Z,98352.72
2022-10-14T00:16:37.133Z,98356.41
2022-10-14T00:19:06.128Z,98344.13
2022-10-14T00:21:35.665Z,98357.88
2022-10-14T00:24:03.436Z,98360.09
2022-10-14T00:26:34.249Z,98360.25
2022-10-14T00:29:05.081Z,98356.94
2022-10-14T00:31:33.801Z,98357.41
2022-10-14T00:34:01.613Z,98353.41
2022-10-14T00:36:29.449Z,98348.16
2022-10-14T00:38:57.913Z,98356.78
2022-10-14T00:41:28.033Z,98351.34
2022-10-14T00:43:59.629Z,98353.41
2022-10-14T00:46:30.526Z,98349.25
2022-10-14T00:48:59.785Z,98349.25
2022-10-14T00:51:28.348Z,98351.34
2022-10-14T00:53:56.824Z,98351.34
2022-10-14T00:56:29.766Z,98349.25
2022-10-14T00:58:59.015Z,98337.78
2022-10-14T01:01:26.788Z,98347.66
2022-10-14T01:03:55.890Z,98337.94
2022-10-14T01:06:37.881Z,98339.22
2022-10-14T01:09:14.407Z,98336.97
2022-10-14T01:12:09.774Z,98335.22
2022-10-14T01:14:52.301Z,98342.88
2022-10-14T01:17:32.010Z,98332.97
2022-10-14T01:20:32.407Z,98333.63
2022-10-14T01:23:14.854Z,98329.31
2022-10-14T01:25:56.590Z,98335.06
2022-10-14T01:28:35.413Z,98336.19
2022-10-14T01:31:07.850Z,98338.25
2022-10-14T01:33:38.781Z,98327.38
2022-10-14T01:36:12.140Z,98333.91
2022-10-14T01:38:45.786Z,98325.63
2022-10-14T01:41:18.981Z,98320.84
2022-10-14T01:43:50.562Z,98319.25
2022-10-14T01:46:23.080Z,98319.88
2022-10-14T01:48:55.618Z,98316.22
2022-10-14T01:51:26.145Z,98318.13
2022-10-14T01:53:58.813Z,98315.75
2022-10-14T01:56:28.469Z,98320.69
2022-10-14T01:58:58.202Z,98323.72
2022-10-14T02:01:28.000Z,98313.53
2022-10-14T02:03:55.825Z,98314.16
2022-10-14T02:06:28.179Z,98311.59
2022-10-14T02:09:09.635Z,98309.66
2022-10-14T02:11:46.414Z,98301.53
2022-10-14T02:14:25.613Z,98308.72
2022-10-14T02:17:01.251Z,98301.53
2022-10-14T02:19:34.286Z,98306.94
2022-10-14T02:22:07.627Z,98293.06
2022-10-14T02:24:38.428Z,98298.19
2022-10-14T02:27:09.975Z,98302.00
2022-10-14T02:29:39.830Z,98290.03
2022-10-14T02:32:11.228Z,98298.81
2022-10-14T02:34:39.073Z,98288.91
2022-10-14T02:37:08.258Z,98288.78
2022-10-14T02:39:40.022Z,98289.91
2022-10-14T02:42:08.021Z,98285.75
2022-10-14T02:44:35.879Z,98286.69
2022-10-14T02:47:04.421Z,98268.50
2022-10-14T02:49:33.555Z,98274.25
2022-10-14T02:52:01.290Z,98280.94
2022-10-14T02:54:29.441Z,98289.88
2022-10-14T02:56:57.177Z,98286.53
2022-10-14T02:59:25.092Z,98283.34
2022-10-14T03:01:53.190Z,98274.06
2022-10-14T03:04:20.905Z,98267.88
2022-10-14T03:06:50.129Z,98278.56
2022-10-14T03:09:18.113Z,98280.66
2022-10-14T03:11:46.545Z,98267.88
2022-10-14T03:14:14.584Z,98275.22
2022-10-14T03:16:42.710Z,98282.38
2022-10-14T03:19:10.732Z,98273.13
2022-10-14T03:21:38.618Z,98269.13
2022-10-14T03:24:08.505Z,98281.09
2022-10-14T03:26:36.241Z,98279.81
2022-10-14T03:29:04.480Z,98274.25
2022-10-14T03:31:32.275Z,98274.25
2022-10-14T03:34:00.054Z,98272.84
2022-10-14T03:36:28.040Z,98273.28
2022-10-14T03:38:55.879Z,98275.38
2022-10-14T03:41:25.080Z,98276.47
2022-10-14T03:43:53.333Z,98272.66
2022-10-14T03:46:21.289Z,98266.59
2022-10-14T03:48:49.040Z,98267.53
2022-10-14T03:51:17.310Z,98263.53
2022-10-14T03:53:45.687Z,98261.75
2022-10-14T03:56:13.516Z,98264.34
2022-10-14T03:58:42.741Z,98252.84
2022-10-14T04:01:10.700Z,98248.22
2022-10-14T04:03:38.561Z,98255.72
2022-10-14T04:06:06.860Z,98258.28
2022-10-14T04:08:35.076Z,98259.06
2022-10-14T04:11:03.050Z,98251.88
2022-10-14T04:13:30.801Z,98250.91
2022-10-14T04:16:04.046Z,98253.00
2022-10-14T04:18:32.036Z,98250.88
2022-10-14T04:21:01.241Z,98242.88
2022-10-14T04:23:28.986Z,98252.31
2022-10-14T04:25:56.967Z,98246.69
2022-10-14T04:28:24.958Z,98238.66
2022-10-14T04:30:52.654Z,98239.59
2022-10-14T04:33:21.996Z,98240.56
2022-10-14T04:35:49.785Z,98236.69
2022-10-14T04:38:17.561Z,98233.34
2022-10-14T04:40:46.209Z,98241.00
2022-10-14T04:43:14.074Z,98236.69
2022-10-14T04:45:42.653Z,98233.19
2022-10-14T04:48:10.560Z,98235.75
2022-10-14T04:50:39.928Z,98240.56
2022-10-14T04:53:11.948Z,98243.56
2022-10-14T04:55:41.352Z,98244.88
2022-10-14T04:58:09.458Z,98241.53
2022-10-14T05:00:37.321Z,98241.84
2022-10-14T05:03:05.410Z,98238.50
2022-10-14T05:05:33.347Z,98237.25
2022-10-14T05:08:02.709Z,98239.00
2022-10-14T05:10:30.832Z,98239.97
2022-10-14T05:12:58.601Z,98237.88
2022-10-14T05:15:26.321Z,98228.97
2022-10-14T05:17:54.390Z,98233.00
2022-10-14T05:20:22.102Z,98230.16
2022-10-14T05:22:49.815Z,98235.59
2022-10-14T05:25:19.251Z,98232.56
2022-10-14T05:27:47.082Z,98235.28
2022-10-14T05:30:15.462Z,98234.03
2022-10-14T05:32:43.412Z,98235.09
2022-10-14T05:35:11.621Z,98232.78
2022-10-14T05:37:39.510Z,98225.25
2022-10-14T05:40:08.948Z,98232.59
2022-10-14T05:42:38.205Z,98229.56
2022-10-14T05:45:07.034Z,98228.28
2022-10-14T05:47:34.857Z,98227.78
2022-10-14T05:50:04.491Z,98226.66
2022-10-14T05:52:34.292Z,98229.25
2022-10-14T05:55:02.587Z,98211.38
2022-10-14T05:57:30.329Z,98219.16
2022-10-14T05:59:59.537Z,98224.59
2022-10-14T06:02:27.482Z,98223.97
2022-10-14T06:04:55.223Z,98221.69
2022-10-14T06:07:23.402Z,98232.56
2022-10-14T06:09:51.328Z,98226.50
2022-10-14T06:12:19.270Z,98232.94
2022-10-14T06:14:47.409Z,98235.63
2022-10-14T06:17:17.715Z,98234.25
2022-10-14T06:19:45.477Z,98237.69
2022-10-14T06:22:13.381Z,98237.06
2022-10-14T06:24:41.294Z,98242.59
2022-10-14T06:27:09.082Z,98243.19
2022-10-14T06:29:38.528Z,98247.88
2022-10-14T06:32:06.619Z,98239.66
2022-10-14T06:34:35.846Z,98240.44
2022-10-14T06:37:03.813Z,98245.47
2022-10-14T06:39:31.667Z,98245.72
2022-10-14T06:41:59.361Z,98252.09
2022-10-14T06:44:27.382Z,98249.94
2022-10-14T06:46:55.213Z,98246.69
2022-10-14T06:49:22.909Z,98256.91
2022-10-14T06:51:52.201Z,98252.19
2022-10-14T06:54:20.043Z,98251.75
2022-10-14T06:56:47.729Z,98252.88
2022-10-14T06:59:15.720Z,98250.28
2022-10-14T07:01:43.614Z,98254.50
2022-10-14T07:04:11.556Z,98251.09
2022-10-14T07:06:39.420Z,98245.09
2022-10-14T07:09:08.651Z,98242.50
2022-10-14T07:11:36.362Z,98240.94
2022-10-14T07:14:04.529Z,98242.97
2022-10-14T07:16:33.196Z,98239.31
2022-10-14T07:19:00.922Z,98241.94
2022-10-14T07:21:28.883Z,98252.25
2022-10-14T07:23:56.881Z,98243.84
2022-10-14T07:26:26.013Z,98249.97
2022-10-14T07:28:55.423Z,98250.22
2022-10-14T07:31:23.305Z,98249.19
2022-10-14T07:33:51.064Z,98251.34
2022-10-14T07:36:22.583Z,98247.94
2022-10-14T07:38:50.940Z,98247.00
2022-10-14T07:41:21.542Z,98247.28
2022-10-14T07:43:53.021Z,98244.19
2022-10-14T07:46:29.607Z,98243.16
2022-10-14T07:48:58.828Z,98246.78
2022-10-14T07:51:27.244Z,98246.34
2022-10-14T07:53:56.123Z,98246.56
2022-10-14T07:56:24.356Z,98245.28
2022-10-14T07:58:53.600Z,98246.06
2022-10-14T08:01:21.559Z,98245.59
2022-10-14T08:03:49.843Z,98240.72
2022-10-14T08:06:17.882Z,98240.91
2022-10-14T08:08:46.033Z,98245.09
2022-10-14T08:11:16.503Z,98240.72
2022-10-14T08:13:46.216Z,98239.53
2022-10-14T08:16:18.605Z,98242.19
2022-10-14T08:18:46.799Z,98238.81
2022-10-14T08:21:15.878Z,98243.31
2022-10-14T08:23:44.003Z,98227.97
2022-10-14T08:26:20.660Z,98245.00
2022-10-14T08:28:49.160Z,98238.78
2022-10-14T08:31:18.676Z,98248.47
2022-10-14T08:33:47.150Z,98251.13
2022-10-14T08:36:15.776Z,98255.69
2022-10-14T08:38:43.700Z,98252.72
2022-10-14T08:41:26.657Z,98234.06
2022-10-14T08:44:10.558Z,98246.00
2022-10-14T08:46:49.385Z,98242.69
2022-10-14T08:49:25.932Z,98247.03
2022-10-14T08:51:58.480Z,98242.97
2022-10-14T08:54:33.097Z,98241.56
2022-10-14T08:57:01.845Z,98245.13
2022-10-14T08:59:30.121Z,98241.41
2022-10-14T09:02:04.809Z,98238.00
2022-10-14T09:04:36.616Z,98244.09
2022-10-14T09:07:06.166Z,98242.50
2022-10-14T09:09:41.034Z,98245.09
2022-10-14T09:12:18.088Z,98242.78
2022-10-14T09:14:53.705Z,98242.25
2022-10-14T09:17:27.445Z,98245.19
2022-10-14T09:20:05.146Z,98245.75
2022-10-14T09:22:33.059Z,98243.03
2022-10-14T09:25:01.395Z,98253.03
2022-10-14T09:27:30.357Z,98251.13
2022-10-14T09:30:01.077Z,98246.06
2022-10-14T09:32:35.526Z,98251.50
2022-10-14T09:35:04.889Z,98248.50
2022-10-14T09:37:34.253Z,98250.28
2022-10-14T09:40:05.841Z,98251.38
2022-10-14T09:42:45.879Z,98256.16
2022-10-14T09:45:15.709Z,98252.06
2022-10-14T09:47:50.986Z,98253.84
2022-10-14T09:50:25.481Z,98247.16
2022-10-14T09:52:58.369Z,98243.16
2022-10-14T09:55:26.600Z,98254.25
2022-10-14T09:58:04.564Z,98245.53
2022-10-14T10:00:35.370Z,98229.88
2022-10-14T10:03:06.886Z,98233.88
2022-10-14T10:05:36.450Z,98235.41
2022-10-14T10:08:12.466Z,98246.09
2022-10-14T10:10:40.521Z,98246.63
2022-10-14T10:13:22.044Z,98242.88
2022-10-14T10:15:59.549Z,98248.56
2022-10-14T10:18:28.991Z,98223.50
2022-10-14T10:21:08.601Z,98242.69
2022-10-14T10:23:37.641Z,98232.00
2022-10-14T10:26:17.658Z,98237.84
2022-10-14T10:28:47.444Z,98237.97
2022-10-14T10:31:29.351Z,98233.00
2022-10-14T10:34:07.821Z,98236.59
2022-10-14T10:36:41.151Z,98208.28
2022-10-14T10:39:18.428Z,98225.13
2022-10-14T10:42:02.561Z,98221.72
2022-10-14T10:44:55.074Z,98225.53
2022-10-14T10:47:48.622Z,98226.94
2022-10-14T10:50:31.058Z,98222.84
2022-10-14T10:53:18.292Z,98223.31
2022-10-14T10:55:58.305Z,98211.44
2022-10-14T10:58:41.850Z,98217.63
2022-10-14T11:01:21.342Z,98205.91
2022-10-14T11:04:01.819Z,98195.09
2022-10-14T11:06:57.993Z,98199.28
2022-10-14T11:09:50.523Z,98208.00
2022-10-14T11:12:29.358Z,98205.03
2022-10-14T11:15:14.442Z,98203.25
2022-10-14T11:17:48.493Z,98204.75
2022-10-14T11:20:25.789Z,98206.19
2022-10-14T11:23:14.093Z,98203.59
2022-10-14T11:25:49.983Z,98206.78
2022-10-14T11:28:27.923Z,98197.75
2022-10-14T11:31:04.689Z,98197.47
2022-10-14T11:33:48.209Z,98200.22
2022-10-14T11:36:26.377Z,98202.06
2022-10-14T11:39:06.420Z,98191.78
2022-10-14T11:41:48.788Z,98197.38
2022-10-14T11:44:22.845Z,98191.50
2022-10-14T11:47:00.836Z,98194.72
2022-10-14T11:49:32.524Z,98197.03
2022-10-14T11:52:04.555Z,98197.28
2022-10-14T11:54:37.792Z,98191.22
2022-10-14T11:57:10.852Z,98195.66
2022-10-14T12:00:02.984Z,98190.47
2022-10-14T12:02:39.281Z,98197.75
2022-10-14T12:05:15.809Z,98196.16
2022-10-14T12:07:50.784Z,98190.81
2022-10-14T12:10:26.753Z,98194.41
2022-10-14T12:12:55.730Z,98187.63
2022-10-14T12:15:27.057Z,98185.63
2022-10-14T12:17:57.598Z,98186.47
2022-10-14T12:20:35.225Z,98183.25
2022-10-14T12:23:06.173Z,98182.44
2022-10-14T12:25:44.338Z,98185.19
2022-10-14T12:28:16.188Z,98179.41
2022-10-14T12:30:44.345Z,98182.44
2022-10-14T12:33:17.741Z,98191.81
2022-10-14T12:35:52.603Z,98187.63
2022-10-14T12:38:20.894Z,98183.88
2022-10-14T12:40:50.261Z,98181.66
2022-10-14T12:43:23.571Z,98198.91
2022-10-14T12:46:00.535Z,98195.00
2022-10-14T12:48:32.887Z,98195.00
2022-10-14T12:51:08.805Z,98197.97
2022-10-14T12:53:38.385Z,98197.00
2022-10-14T12:56:08.149Z,98205.56
2022-10-14T12:58:38.560Z,98204.69
2022-10-14T13:01:16.229Z,98196.78
2022-10-14T13:03:53.910Z,98201.53
2022-10-14T13:06:35.438Z,98194.16
2022-10-14T13:09:40.113Z,98196.38
2022-10-14T13:12:44.766Z,98189.69
2022-10-14T13:15:49.586Z,98188.47
2022-10-14T13:18:51.608Z,98175.84
2022-10-14T13:21:31.115Z,98171.31
2022-10-14T13:24:02.665Z,98176.09
2022-10-14T13:26:39.733Z,98186.31
2022-10-14T13:29:17.435Z,98178.13
2022-10-14T13:31:55.529Z,98182.31
2022-10-14T13:34:42.964Z,98172.81
2022-10-14T13:37:30.581Z,98174.53
2022-10-14T13:40:00.416Z,98160.09
2022-10-14T13:42:33.165Z,98162.22
2022-10-14T13:45:07.487Z,98167.41
2022-10-14T13:47:37.620Z,98146.47
2022-10-14T13:50:06.485Z,98157.44
2022-10-14T13:52:35.706Z,98159.31
2022-10-14T13:55:13.725Z,98156.13
2022-10-14T13:58:11.080Z,98159.25
2022-10-14T14:00:40.602Z,98156.44
2022-10-14T14:03:19.929Z,98153.34
2022-10-14T14:05:48.537Z,98152.53
2022-10-14T14:08:40.205Z,98151.66
2022-10-14T14:11:23.088Z,98156.03
2022-10-14T14:14:00.835Z,98155.34
2022-10-14T14:16:35.014Z,98156.59
2022-10-14T14:19:10.036Z,98153.69
2022-10-14T14:21:39.165Z,98148.63
2022-10-14T14:24:17.799Z,98150.03
2022-10-14T14:26:45.965Z,98143.44
2022-10-14T14:29:19.273Z,98145.25
2022-10-14T14:32:05.613Z,98140.44
2022-10-14T14:34:37.895Z,98134.91
2022-10-14T14:40:00.585Z,98137.81
2022-10-14T14:42:32.245Z,98138.56
2022-10-14T14:45:04.125Z,98143.28
2022-10-14T14:47:33.005Z,98136.50
2022-10-14T14:50:30.018Z,98149.72
2022-10-14T14:52:52.679Z,98141.88
2022-10-14T14:55:44.125Z,98137.16
2022-10-14T14:58:23.085Z,98139.91
2022-10-14T15:00:52.813Z,98138.03
2022-10-14T15:03:20.854Z,98139.38
2022-10-14T15:05:58.494Z,98134.63
2022-10-14T15:08:30.109Z,98133.59
2022-10-14T15:10:59.376Z,98137.41
2022-10-14T15:13:43.313Z,98131.00
2022-10-14T15:16:11.362Z,98130.88
2022-10-14T15:18:42.514Z,98127.72
2022-10-14T15:21:19.978Z,98122.00
2022-10-14T15:24:03.113Z,98126.19
2022-10-14T15:26:34.177Z,98123.16
2022-10-14T15:29:13.093Z,98129.63
2022-10-14T15:31:42.903Z,98122.47
2022-10-14T15:34:20.385Z,98129.25
2022-10-14T15:36:53.936Z,98117.69
2022-10-14T15:39:22.860Z,98118.44
2022-10-14T15:41:50.629Z,98124.63
2022-10-14T15:44:18.578Z,98126.78
2022-10-14T15:47:05.176Z,98120.16
2022-10-14T15:49:35.038Z,98124.66
2022-10-14T15:52:04.483Z,98124.56
2022-10-14T15:54:32.599Z,98124.84
2022-10-14T15:57:00.680Z,98121.69
2022-10-14T15:59:28.772Z,98123.84
2022-10-14T16:01:56.813Z,98125.44
2022-10-14T16:04:27.893Z,98123.75
2022-10-14T16:06:57.809Z,98120.22
2022-10-14T16:09:28.540Z,98132.31
2022-10-14T16:11:59.254Z,98128.78
2022-10-14T16:14:28.490Z,98130.72
2022-10-14T16:16:56.450Z,98132.72
2022-10-14T16:19:24.316Z,98129.66
2022-10-14T16:21:52.445Z,98128.84
2022-10-14T16:24:22.199Z,98129.75
2022-10-14T16:26:51.613Z,98138.44
2022-10-14T16:29:20.761Z,98132.91
2022-10-14T16:31:49.928Z,98135.22
2022-10-14T16:34:18.010Z,98134.16
2022-10-14T16:36:46.482Z,98137.06
2022-10-14T16:39:14.293Z,98143.84
2022-10-14T16:41:42.489Z,98139.59
2022-10-14T16:44:24.262Z,98142.97
2022-10-14T16:47:10.117Z,98133.75
2022-10-14T16:49:38.836Z,98137.72
2022-10-14T16:52:06.788Z,98127.47
2022-10-14T16:54:34.753Z,98138.50
2022-10-14T16:57:03.133Z,98144.59
2022-10-14T16:59:32.539Z,98144.50
2022-10-14T17:02:00.820Z,98149.16
2022-10-14T17:04:29.184Z,98145.00
2022-10-14T17:06:57.167Z,98145.00
2022-10-14T17:11:58.327Z,98142.25
2022-10-14T17:14:27.936Z,98140.84
2022-10-14T17:16:56.963Z,98148.09
2022-10-14T17:19:24.969Z,98146.59
2022-10-14T17:21:52.773Z,98147.38
2022-10-14T17:24:20.569Z,98154.25
2022-10-14T17:26:48.600Z,98148.59
2022-10-14T17:29:16.469Z,98147.69
2022-10-14T17:31:44.806Z,98142.13
2022-10-14T17:34:14.290Z,98146.94
2022-10-14T17:36:42.444Z,98144.09
2022-10-14T17:39:18.738Z,98151.06
2022-10-14T17:41:53.093Z,98144.28
2022-10-14T17:44:20.878Z,98147.00
2022-10-14T17:46:49.033Z,98139.50
2022-10-14T17:49:18.722Z,98148.13
2022-10-14T17:51:46.501Z,98144.63
2022-10-14T17:54:14.217Z,98144.88
2022-10-14T17:56:43.052Z,98146.31
2022-10-14T17:59:14.075Z,98148.53
2022-10-14T18:04:32.265Z,98146.38
2022-10-14T18:07:00.141Z,98139.00
2022-10-14T18:09:28.274Z,98150.34
2022-10-14T18:12:13.158Z,98138.63
2022-10-14T18:14:41.440Z,98148.06
2022-10-14T18:17:12.535Z,98140.41
2022-10-14T18:19:42.304Z,98139.88
2022-10-14T18:22:11.474Z,98130.28
2022-10-14T18:24:39.629Z,98134.88
2022-10-14T18:27:07.511Z,98131.00
2022-10-14T18:29:35.627Z,98132.13
2022-10-14T18:32:03.882Z,98134.16
2022-10-14T18:34:32.393Z,98129.13
2022-10-14T18:37:01.733Z,98125.34
2022-10-14T18:39:29.503Z,98128.31
2022-10-14T18:41:57.537Z,98131.50
2022-10-14T18:44:25.970Z,98125.94
2022-10-14T18:46:53.857Z,98135.34
2022-10-14T18:49:21.738Z,98129.91
2022-10-14T18:51:50.540Z,98133.34
2022-10-14T18:54:23.572Z,98135.72
2022-10-14T18:56:52.556Z,98132.41
2022-10-14T18:59:23.011Z,98134.88
2022-10-14T19:01:53.145Z,98134.13
2022-10-14T19:04:23.561Z,98130.41
2022-10-14T19:06:51.483Z,98135.88
2022-10-14T19:09:24.584Z,98139.06
2022-10-14T19:11:53.556Z,98145.59
2022-10-14T19:14:22.395Z,98134.88
2022-10-14T19:16:50.364Z,98139.97
2022-10-14T19:19:20.312Z,98134.78
2022-10-14T19:21:53.960Z,98137.84
2022-10-14T19:24:23.451Z,98130.81
2022-10-14T19:26:51.541Z,98138.34
2022-10-14T19:29:19.306Z,98141.53
2022-10-14T19:31:47.423Z,98131.31
2022-10-14T19:34:17.144Z,98131.00
2022-10-14T19:36:45.986Z,98133.66
2022-10-14T19:39:16.566Z,98127.09
2022-10-14T19:41:47.361Z,98125.72
2022-10-14T19:44:17.113Z,98132.69
2022-10-14T19:46:46.074Z,98123.38
2022-10-14T19:49:15.211Z,98119.13
2022-10-14T19:51:44.369Z,98117.72
2022-10-14T19:54:13.676Z,98113.66
2022-10-14T19:56:41.821Z,98124.47
2022-10-14T19:59:14.051Z,98118.75
2022-10-14T20:01:42.684Z,98115.94
2022-10-14T20:04:10.717Z,98120.91
2022-10-14T20:06:39.989Z,98114.72
2022-10-14T20:09:09.118Z,98111.84
2022-10-14T20:11:38.910Z,98123.19
2022-10-14T20:14:06.806Z,98117.63
2022-10-14T20:16:36.061Z,98125.66
2022-10-14T20:19:05.853Z,98112.50
2022-10-14T20:21:33.729Z,98117.63
2022-10-14T20:24:01.505Z,98120.50
2022-10-14T20:26:30.694Z,98120.31
2022-10-14T20:28:59.168Z,98122.31
2022-10-14T20:31:27.070Z,98119.22
2022-10-14T20:33:57.641Z,98111.69
2022-10-14T20:36:25.542Z,98116.53
2022-10-14T20:38:53.502Z,98107.31
2022-10-14T20:41:23.092Z,98119.63
2022-10-14T20:43:52.138Z,98113.91
2022-10-14T20:46:21.819Z,98115.38
2022-10-14T20:48:54.709Z,98112.28
2022-10-14T20:51:25.897Z,98112.38
2022-10-14T20:54:01.675Z,98105.53
2022-10-14T20:56:33.690Z,98100.59
2022-10-14T20:59:03.476Z,98117.63
2022-10-14T21:01:32.322Z,98108.31
2022-10-14T21:04:02.488Z,98103.94
2022-10-14T21:06:31.983Z,98098.78
2022-10-14T21:09:00.046Z,98091.53
2022-10-14T21:11:28.840Z,98090.75
2022-10-14T21:13:58.631Z,98094.16
2022-10-14T21:16:28.601Z,98091.63
2022-10-14T21:18:58.502Z,98096.31
2022-10-14T21:21:28.635Z,98090.28
2022-10-14T21:23:59.527Z,98089.94
2022-10-14T21:26:27.978Z,98088.56
2022-10-14T21:28:56.205Z,98090.03
2022-10-14T21:31:24.146Z,98086.06
2022-10-14T21:33:55.571Z,98063.25
2022-10-14T21:36:23.485Z,98083.19
2022-10-14T21:38:51.388Z,98073.16
2022-10-14T21:41:20.824Z,98079.66
2022-10-14T21:43:48.667Z,98067.88
2022-10-14T21:46:17.616Z,98065.03
2022-10-14T21:48:46.257Z,98077.47
2022-10-14T21:51:16.652Z,98062.91
2022-10-14T21:53:46.680Z,98064.13
2022-10-14T21:56:16.812Z,98071.91
2022-10-14T21:58:46.152Z,98057.81
2022-10-14T22:01:16.347Z,98062.28
2022-10-14T22:03:45.325Z,98072.38
2022-10-14T22:06:15.429Z,98061.66
2022-10-14T22:08:45.282Z,98071.09
2022-10-14T22:11:17.772Z,98066.78
2022-10-14T22:13:46.977Z,98066.19
2022-10-14T22:16:16.868Z,98049.63
2022-10-14T22:18:46.673Z,98060.53
2022-10-14T22:21:15.986Z,98059.81
2022-10-14T22:23:44.941Z,98056.81
2022-10-14T22:26:14.675Z,98057.97
2022-10-14T22:28:42.773Z,98054.00
2022-10-14T22:31:14.417Z,98056.72
2022-10-14T22:33:43.818Z,98053.53
2022-10-14T22:36:13.822Z,98050.38
2022-10-14T22:38:43.825Z,98052.47
2022-10-14T22:41:14.110Z,98052.16
2022-10-14T22:43:46.517Z,98052.56
2022-10-14T22:46:19.521Z,98044.75
2022-10-14T22:48:48.117Z,98053.50
2022-10-14T22:51:17.884Z,98047.81
2022-10-14T22:53:47.366Z,98050.66
2022-10-14T22:56:16.992Z,98050.88
2022-10-14T22:58:45.305Z,98062.69
2022-10-14T23:01:16.781Z,98054.06
2022-10-14T23:03:45.136Z,98056.25
2022-10-14T23:06:14.551Z,98052.50
2022-10-14T23:08:43.050Z,98058.63
2022-10-14T23:11:14.826Z,98063.50
2022-10-14T23:13:43.277Z,98059.84
2022-10-14T23:16:14.195Z,98056.22
2022-10-14T23:18:44.248Z,98054.91
2022-10-14T23:21:14.379Z,98053.31
2022-10-14T23:23:42.843Z,98053.53
2022-10-14T23:26:11.835Z,98053.75
2022-10-14T23:28:40.193Z,98055.31
2022-10-14T23:31:12.591Z,98045.13
2022-10-14T23:33:41.289Z,98052.16
2022-10-14T23:36:13.210Z,98048.53
2022-10-14T23:38:41.540Z,98042.88
2022-10-14T23:41:10.845Z,98047.16
2022-10-14T23:43:39.321Z,98045.13
2022-10-14T23:46:08.453Z,98045.03
2022-10-14T23:48:36.908Z,98036.09
2022-10-14T23:51:05.349Z,98030.72
2022-10-14T23:53:35.697Z,98039.22
2022-10-14T23:56:04.307Z,98029.81
2022-10-14T23:58:32.736Z,98031.28
